Time;durP1;ratioP1;P1;durP2;ratioP2;P2;SDS_P1;SDS_P2;PMS_P1;PMS_P2;Temp;Humidity;BMP_temperature;BMP_pressure;BME280_temperature;BME280_humidity;BME280_pressure;Samples;Min_cycle;Max_cycle;Signal;HPM_P1;HPM_P2
2021/05/27 00:00:43;;;;;;;2.30;2.20;;;19.20;34.50;;;;;;4957700;29;20415;-76
2021/05/27 00:03:09;;;;;;;2.77;2.57;;;19.20;34.60;;;;;;4957449;29;20227;-77
2021/05/27 00:05:34;;;;;;;2.30;2.20;;;19.20;34.50;;;;;;4939838;29;20427;-77
2021/05/27 00:08:00;;;;;;;2.60;2.40;;;19.20;35.20;;;;;;4957217;29;20230;-77
2021/05/27 00:10:29;;;;;;;2.90;2.60;;;19.20;34.50;;;;;;4957744;29;20207;-77
2021/05/27 00:12:55;;;;;;;2.80;2.70;;;19.20;34.50;;;;;;4957273;29;20537;-77
2021/05/27 00:15:22;;;;;;;2.13;2.03;;;19.20;34.50;;;;;;4956813;29;20462;-77
2021/05/27 00:17:48;;;;;;;2.60;2.40;;;19.20;34.50;;;;;;4957291;29;20450;-77
2021/05/27 00:20:15;;;;;;;3.13;2.93;;;19.20;34.50;;;;;;4957050;29;20809;-78
2021/05/27 00:22:40;;;;;;;2.50;2.40;;;19.20;34.50;;;;;;4956800;29;21304;-77
2021/05/27 00:25:07;;;;;;;2.37;2.27;;;19.20;34.40;;;;;;4956690;29;20565;-77
2021/05/27 00:27:33;;;;;;;2.67;2.57;;;19.20;34.40;;;;;;4939986;29;20181;-77
2021/05/27 00:29:59;;;;;;;2.93;2.60;;;19.20;34.40;;;;;;4956682;29;20420;-77
2021/05/27 00:32:24;;;;;;;2.57;2.40;;;19.20;34.40;;;;;;4957121;29;20213;-77
2021/05/27 00:34:50;;;;;;;2.50;2.40;;;19.20;34.40;;;;;;4956826;29;20676;-78
2021/05/27 00:37:15;;;;;;;2.90;2.70;;;19.20;34.40;;;;;;4956388;29;20172;-77
2021/05/27 00:39:41;;;;;;;2.50;2.30;;;19.20;34.40;;;;;;4956832;29;20729;-77
2021/05/27 00:42:06;;;;;;;2.50;2.40;;;19.20;34.40;;;;;;4956585;29;20211;-77
2021/05/27 00:44:33;;;;;;;2.37;2.20;;;19.10;34.30;;;;;;4956516;29;20584;-78
2021/05/27 00:47:01;;;;;;;2.33;2.17;;;19.10;34.30;;;;;;4956639;29;20202;-77
2021/05/27 00:49:27;;;;;;;2.37;2.20;;;19.20;34.40;;;;;;4956699;29;21174;-77
2021/05/27 00:51:53;;;;;;;2.30;2.20;;;19.10;34.30;;;;;;4939361;29;20565;-77
2021/05/27 00:54:19;;;;;;;2.60;2.40;;;19.10;34.90;;;;;;4956716;29;20486;-77
2021/05/27 00:56:47;;;;;;;2.33;2.23;;;19.10;34.20;;;;;;4956496;29;20419;-77
2021/05/27 00:59:14;;;;;;;2.80;2.40;;;19.10;34.20;;;;;;4955491;28;20482;-78
2021/05/27 01:01:39;;;;;;;2.57;2.47;;;19.10;34.20;;;;;;4954822;29;20475;-77
2021/05/27 01:04:05;;;;;;;2.40;2.20;;;19.10;34.20;;;;;;4956446;29;20408;-77
2021/05/27 01:06:31;;;;;;;2.73;2.63;;;19.10;34.20;;;;;;4939153;29;20537;-78
2021/05/27 01:08:57;;;;;;;2.50;2.40;;;19.10;34.20;;;;;;4956282;29;20183;-77
2021/05/27 01:11:23;;;;;;;2.57;2.47;;;19.10;34.20;;;;;;4956039;29;20199;-77
2021/05/27 01:13:49;;;;;;;2.70;2.60;;;19.10;34.20;;;;;;4956461;29;20238;-77
2021/05/27 01:16:17;;;;;;;2.60;2.50;;;19.10;34.10;;;;;;4955821;29;20418;-78
2021/05/27 01:18:42;;;;;;;2.47;2.47;;;19.10;34.20;;;;;;4956339;29;20426;-78
2021/05/27 01:21:09;;;;;;;2.73;2.60;;;19.10;34.20;;;;;;4956162;29;20431;-77
2021/05/27 01:23:35;;;;;;;2.50;2.40;;;19.10;34.10;;;;;;4955547;29;20221;-77
2021/05/27 01:26:03;;;;;;;2.13;2.03;;;19.10;34.10;;;;;;4955987;29;20412;-78
2021/05/27 01:28:30;;;;;;;2.47;2.37;;;19.10;34.10;;;;;;4956004;29;20498;-77
2021/05/27 01:30:57;;;;;;;2.30;2.20;;;19.10;34.10;;;;;;4955485;29;20446;-78
2021/05/27 01:33:23;;;;;;;2.30;2.30;;;19.10;34.10;;;;;;4956043;29;20423;-77
2021/05/27 01:35:49;;;;;;;2.40;2.30;;;19.10;34.10;;;;;;4955815;29;20498;-78
2021/05/27 01:38:20;;;;;;;2.10;2.00;;;19.10;34.10;;;;;;4955551;29;20958;-77
2021/05/27 01:40:48;;;;;;;2.10;2.00;;;19.10;34.20;;;;;;4955998;29;20577;-78
2021/05/27 01:43:14;;;;;;;2.23;2.13;;;19.00;34.00;;;;;;4955500;29;20465;-78
2021/05/27 01:45:40;;;;;;;2.10;2.10;;;19.10;34.10;;;;;;4955375;29;20411;-78
2021/05/27 01:48:06;;;;;;;2.27;2.17;;;19.10;34.10;;;;;;4955711;29;20486;-78
2021/05/27 01:50:33;;;;;;;2.20;2.10;;;19.00;34.00;;;;;;4955513;29;20415;-77
2021/05/27 01:53:01;;;;;;;2.20;2.10;;;19.00;34.00;;;;;;4955219;29;20443;-77
2021/05/27 01:55:27;;;;;;;2.63;2.30;;;19.00;34.00;;;;;;4955472;29;20411;-77
2021/05/27 01:57:54;;;;;;;2.20;2.10;;;19.00;33.90;;;;;;4955221;29;20454;-77
2021/05/27 02:00:20;;;;;;;2.50;2.30;;;19.00;34.00;;;;;;4955471;29;20426;-77
2021/05/27 02:02:46;;;;;;;2.10;2.00;;;19.00;33.90;;;;;;4937843;29;20459;-77
2021/05/27 02:05:12;;;;;;;2.10;2.00;;;19.00;34.00;;;;;;4954969;29;20168;-77
2021/05/27 02:07:38;;;;;;;3.13;2.17;;;19.00;34.00;;;;;;4954958;29;20172;-77
2021/05/27 02:10:05;;;;;;;2.30;2.20;;;19.00;34.00;;;;;;4955286;28;20910;-78
2021/05/27 02:12:31;;;;;;;2.20;2.10;;;19.00;33.90;;;;;;4955029;29;20989;-78
2021/05/27 02:14:56;;;;;;;1.93;1.93;;;19.00;33.90;;;;;;4955021;29;20535;-77
2021/05/27 02:17:22;;;;;;;2.00;1.90;;;19.00;33.90;;;;;;4955323;29;20669;-77
2021/05/27 02:19:47;;;;;;;2.20;2.10;;;19.00;33.90;;;;;;4955082;29;20184;-77
2021/05/27 02:22:13;;;;;;;2.33;2.23;;;19.00;33.90;;;;;;4955199;29;20576;-78
2021/05/27 02:24:38;;;;;;;2.20;2.10;;;19.00;33.90;;;;;;4955200;29;20183;-77
2021/05/27 02:27:04;;;;;;;2.00;2.00;;;19.00;33.80;;;;;;4955831;29;20253;-77
2021/05/27 02:29:30;;;;;;;2.00;1.90;;;19.00;33.90;;;;;;4956355;29;20255;-77
2021/05/27 02:31:56;;;;;;;2.43;2.23;;;19.00;33.90;;;;;;4955516;29;20451;-77
2021/05/27 02:34:22;;;;;;;2.17;2.07;;;19.00;33.80;;;;;;4937517;29;20238;-77
2021/05/27 02:36:48;;;;;;;2.20;2.10;;;19.00;33.80;;;;;;4954657;29;20414;-78
2021/05/27 02:39:15;;;;;;;2.10;2.00;;;19.00;34.60;;;;;;4954771;29;20415;-77
2021/05/27 02:45:04;;;;;;;2.10;2.10;;;19.00;33.80;;;;;;4952757;29;21085;-77
2021/05/27 02:47:30;;;;;;;2.97;2.87;;;19.00;33.80;;;;;;4937184;29;20430;-76
2021/05/27 02:49:56;;;;;;;2.10;2.00;;;19.00;33.80;;;;;;4937345;29;20418;-77
2021/05/27 02:52:21;;;;;;;2.10;2.10;;;18.90;33.70;;;;;;4954177;29;20438;-76
2021/05/27 02:54:47;;;;;;;2.30;2.20;;;18.90;33.70;;;;;;4954363;29;20310;-77
2021/05/27 02:57:12;;;;;;;2.30;2.20;;;18.90;33.70;;;;;;4954065;29;20175;-76
2021/05/27 02:59:38;;;;;;;2.60;2.40;;;19.00;33.80;;;;;;4953913;29;20721;-77
2021/05/27 03:02:03;;;;;;;2.60;2.40;;;19.00;34.50;;;;;;4954216;29;20199;-77
2021/05/27 03:04:29;;;;;;;2.73;2.50;;;18.90;33.80;;;;;;4954386;29;20176;-77
2021/05/27 03:06:54;;;;;;;2.40;2.20;;;18.90;33.70;;;;;;4953851;29;20168;-77
2021/05/27 03:09:20;;;;;;;2.33;2.23;;;18.90;33.70;;;;;;4954164;29;20184;-77
2021/05/27 03:11:46;;;;;;;2.03;1.93;;;18.90;33.70;;;;;;4954267;29;20191;-77
2021/05/27 03:14:11;;;;;;;2.40;2.30;;;18.90;33.70;;;;;;4953967;29;20178;-77
2021/05/27 03:16:37;;;;;;;2.17;2.07;;;18.90;33.70;;;;;;4953883;29;20185;-77
2021/05/27 03:19:03;;;;;;;2.23;2.03;;;18.90;33.70;;;;;;4954219;29;20267;-77
2021/05/27 03:21:28;;;;;;;2.20;2.10;;;18.90;33.70;;;;;;4953436;28;20223;-77
2021/05/27 03:23:54;;;;;;;2.30;2.20;;;18.90;33.70;;;;;;4954243;28;20835;-77
2021/05/27 03:26:20;;;;;;;2.00;1.90;;;18.90;33.70;;;;;;4953972;29;20171;-77
2021/05/27 03:28:45;;;;;;;2.27;2.17;;;18.90;33.70;;;;;;4936187;29;20650;-77
2021/05/27 03:31:11;;;;;;;2.40;2.30;;;18.90;33.60;;;;;;4953753;29;20454;-77
2021/05/27 03:33:36;;;;;;;2.10;2.10;;;18.90;33.60;;;;;;4953950;29;20714;-77
2021/05/27 03:36:02;;;;;;;2.10;2.10;;;18.90;33.70;;;;;;4936415;29;20186;-77
2021/05/27 03:38:28;;;;;;;2.03;2.03;;;18.90;33.70;;;;;;4953881;29;20191;-78
2021/05/27 03:40:54;;;;;;;2.33;2.23;;;18.90;33.70;;;;;;4936632;29;20184;-77
2021/05/27 03:43:19;;;;;;;2.30;2.20;;;18.90;33.70;;;;;;4953583;29;20447;-77
2021/05/27 03:45:45;;;;;;;2.70;2.60;;;18.90;33.70;;;;;;4953819;29;20364;-77
2021/05/27 03:48:12;;;;;;;2.50;2.40;;;18.90;33.70;;;;;;4953882;29;20300;-77
2021/05/27 03:50:38;;;;;;;2.20;2.20;;;18.90;33.60;;;;;;4953203;29;20178;-77
2021/05/27 03:53:05;;;;;;;2.20;2.10;;;18.90;33.70;;;;;;4953584;29;20514;-77
2021/05/27 03:55:31;;;;;;;2.30;2.20;;;18.90;33.70;;;;;;4953676;29;20179;-77
2021/05/27 03:57:57;;;;;;;2.50;2.40;;;18.90;33.70;;;;;;4953335;29;20907;-77
2021/05/27 04:00:45;;;;;;;2.67;2.47;;;18.90;33.70;;;;;;4953669;29;20263;-77
2021/05/27 04:03:11;;;;;;;2.50;2.40;;;18.90;33.60;;;;;;4953807;29;20841;-77
2021/05/27 04:07:08;;;;;;;2.57;2.47;;;18.90;33.60;;;;;;4953205;29;20930;-77
2021/05/27 04:08:41;;;;;;;2.40;2.40;;;18.90;33.60;;;;;;4953151;29;20449;-77
2021/05/27 04:11:06;;;;;;;2.47;2.37;;;18.90;33.60;;;;;;4953874;29;20922;-77
2021/05/27 04:13:32;;;;;;;2.40;2.30;;;18.80;33.60;;;;;;4953328;29;20643;-77
2021/05/27 04:15:57;;;;;;;2.53;2.43;;;18.90;33.70;;;;;;4936634;29;20709;-77
2021/05/27 04:18:25;;;;;;;2.40;2.30;;;18.90;33.60;;;;;;4953400;29;20176;-77
2021/05/27 04:20:54;;;;;;;2.37;2.27;;;18.90;33.60;;;;;;4953501;29;20176;-77
2021/05/27 04:23:35;;;;;;;2.30;2.20;;;18.90;33.60;;;;;;4953526;28;20462;-77
2021/05/27 04:26:02;;;;;;;2.30;2.20;;;18.90;33.50;;;;;;4954965;28;20437;-77
2021/05/27 04:28:28;;;;;;;2.13;2.13;;;18.90;33.50;;;;;;4957438;28;20426;-77
2021/05/27 04:31:12;;;;;;;2.70;2.60;;;18.90;33.60;;;;;;4965840;28;20834;-78
2021/05/27 04:33:40;;;;;;;2.80;2.70;;;19.00;34.80;;;;;;4967312;28;20189;-77
2021/05/27 04:36:07;;;;;;;3.10;3.00;;;19.20;35.40;;;;;;4958248;28;20461;-77
2021/05/27 04:38:32;;;;;;;4.80;3.10;;;19.20;35.70;;;;;;4959017;28;20418;-77
2021/05/27 04:40:58;;;;;;;5.07;3.47;;;19.30;35.80;;;;;;4975184;28;20418;-77
2021/05/27 04:43:24;;;;;;;5.15;3.55;;;19.40;36.00;;;;;;4946977;28;20936;-78
2021/05/27 04:45:52;;;;;;;5.57;5.10;;;19.40;35.90;;;;;;4958843;28;20175;-77
2021/05/27 04:48:22;;;;;;;6.03;5.63;;;19.50;36.10;;;;;;4976471;28;20183;-78
2021/05/27 04:51:02;;;;;;;10.20;8.10;;;19.50;36.10;;;;;;4976501;28;20410;-79
2021/05/27 04:53:29;;;;;;;17.57;9.27;;;19.60;36.40;;;;;;4974447;28;20434;-78
2021/05/27 04:55:55;;;;;;;9.80;9.17;;;19.60;36.60;;;;;;4958183;28;20422;-77
2021/05/27 04:58:28;;;;;;;11.50;8.33;;;19.60;36.50;;;;;;4974921;28;20778;-77
2021/05/27 05:00:54;;;;;;;9.57;8.80;;;19.60;36.50;;;;;;4975562;28;20973;-77
2021/05/27 05:03:44;;;;;;;8.13;7.73;;;19.70;36.60;;;;;;4958608;28;20489;-77
2021/05/27 05:06:16;;;;;;;10.47;9.57;;;19.70;36.60;;;;;;4975249;28;20445;-77
2021/05/27 05:08:42;;;;;;;10.10;9.30;;;19.70;36.60;;;;;;4958386;28;20469;-77
2021/05/27 05:11:07;;;;;;;9.30;8.80;;;19.70;36.50;;;;;;4974842;28;20453;-77
2021/05/27 05:13:33;;;;;;;9.47;8.67;;;19.70;36.60;;;;;;4976214;28;20186;-78
2021/05/27 05:15:58;;;;;;;9.20;8.60;;;19.70;36.50;;;;;;4958286;28;20318;-79
2021/05/27 05:18:24;;;;;;;9.50;8.90;;;19.70;36.50;;;;;;4958365;28;20179;-79
2021/05/27 05:20:50;;;;;;;9.67;8.53;;;19.70;36.30;;;;;;4970877;28;20237;-77
2021/05/27 05:23:16;;;;;;;10.50;9.70;;;19.70;36.60;;;;;;4957740;28;20446;-77
2021/05/27 05:25:42;;;;;;;11.63;8.93;;;19.70;36.80;;;;;;4957565;28;20187;-77
2021/05/27 05:28:09;;;;;;;9.70;8.97;;;19.80;37.10;;;;;;4973507;28;20721;-76
2021/05/27 05:30:35;;;;;;;8.90;8.33;;;19.80;36.90;;;;;;4957759;28;20418;-78
2021/05/27 05:33:02;;;;;;;10.47;9.40;;;19.80;37.40;;;;;;4966180;28;20461;-76
2021/05/27 05:35:29;;;;;;;9.03;8.43;;;19.80;37.50;;;;;;4973474;28;20801;-76
2021/05/27 05:37:55;;;;;;;8.80;8.10;;;19.80;37.40;;;;;;4974489;28;20496;-76
2021/05/27 05:40:23;;;;;;;9.13;8.27;;;19.80;37.60;;;;;;4975083;28;20438;-76
2021/05/27 05:42:51;;;;;;;8.30;7.80;;;19.80;36.20;;;;;;4974329;28;20473;-77
2021/05/27 05:45:18;;;;;;;7.90;7.30;;;19.70;36.10;;;;;;4974932;28;20852;-77
2021/05/27 05:47:44;;;;;;;6.70;6.20;;;19.70;35.30;;;;;;4957777;28;20465;-76
2021/05/27 05:50:10;;;;;;;6.33;5.93;;;19.60;33.00;;;;;;4974332;28;20414;-76
2021/05/27 05:52:36;;;;;;;4.40;4.03;;;19.50;31.60;;;;;;4974964;28;20456;-75
2021/05/27 05:55:03;;;;;;;5.43;5.10;;;19.40;31.10;;;;;;4972268;28;20197;-76
2021/05/27 05:57:29;;;;;;;4.80;4.40;;;19.40;32.20;;;;;;4970840;28;20191;-75
2021/05/27 05:59:54;;;;;;;5.00;4.70;;;19.40;32.40;;;;;;4973921;28;20441;-76
2021/05/27 06:02:20;;;;;;;4.90;4.60;;;19.40;32.70;;;;;;4958676;28;20615;-75
2021/05/27 06:04:45;;;;;;;5.30;5.00;;;19.40;32.80;;;;;;4975346;28;20175;-76
2021/05/27 06:07:11;;;;;;;5.10;4.80;;;19.40;33.10;;;;;;4974493;28;20183;-76
2021/05/27 06:09:36;;;;;;;5.27;4.87;;;19.40;33.20;;;;;;4974615;28;20305;-76
2021/05/27 06:12:03;;;;;;;5.07;4.57;;;19.40;33.40;;;;;;4974259;28;20257;-75
2021/05/27 06:14:28;;;;;;;5.13;4.70;;;19.40;33.40;;;;;;4973145;28;20194;-77
2021/05/27 06:16:56;;;;;;;4.60;4.30;;;19.40;33.50;;;;;;4956579;28;20418;-76
2021/05/27 06:19:22;;;;;;;4.93;4.63;;;19.30;33.50;;;;;;4973066;28;20183;-77
2021/05/27 06:21:49;;;;;;;4.93;4.60;;;19.40;33.60;;;;;;4972869;28;20445;-76
2021/05/27 06:24:14;;;;;;;4.73;4.53;;;19.30;33.60;;;;;;4974390;28;20323;-75
2021/05/27 06:26:40;;;;;;;4.60;4.40;;;19.30;33.70;;;;;;4971728;28;20430;-76
2021/05/27 06:29:05;;;;;;;4.50;4.30;;;19.30;33.70;;;;;;4970216;28;20525;-76
2021/05/27 06:31:32;;;;;;;4.50;4.20;;;19.30;33.80;;;;;;4968401;28;20718;-76
2021/05/27 06:33:58;;;;;;;4.93;4.53;;;19.30;33.90;;;;;;4956392;28;20230;-75
2021/05/27 06:36:24;;;;;;;5.30;5.00;;;19.30;34.00;;;;;;4948702;28;20445;-75
2021/05/27 06:38:49;;;;;;;4.63;4.33;;;19.30;34.10;;;;;;4973814;28;20194;-75
2021/05/27 06:41:19;;;;;;;4.83;4.53;;;19.30;34.10;;;;;;4972708;28;20210;-76
2021/05/27 06:43:45;;;;;;;4.53;4.30;;;19.30;34.10;;;;;;4974155;28;20206;-75
2021/05/27 06:46:10;;;;;;;5.03;4.40;;;19.30;34.20;;;;;;4973876;28;20504;-75
2021/05/27 06:48:36;;;;;;;4.60;4.30;;;19.20;34.10;;;;;;4973562;28;20461;-76
2021/05/27 06:51:01;;;;;;;4.10;3.90;;;19.30;34.20;;;;;;4972440;28;20204;-76
2021/05/27 06:53:27;;;;;;;4.30;4.10;;;19.30;34.20;;;;;;4973740;28;20190;-76
2021/05/27 06:55:52;;;;;;;4.20;3.90;;;19.30;34.30;;;;;;4972578;28;20190;-75
2021/05/27 06:58:18;;;;;;;4.50;4.30;;;19.20;34.20;;;;;;4971175;28;20397;-76
2021/05/27 07:00:44;;;;;;;4.77;4.47;;;19.20;34.20;;;;;;4973342;28;20187;-76
2021/05/27 07:03:11;;;;;;;5.07;4.77;;;19.20;34.20;;;;;;4972102;28;20199;-76
2021/05/27 07:05:37;;;;;;;4.20;4.00;;;19.20;34.20;;;;;;4972778;28;20501;-76
2021/05/27 07:08:06;;;;;;;4.20;3.90;;;19.20;34.20;;;;;;4973425;28;20442;-76
2021/05/27 07:10:32;;;;;;;4.40;4.10;;;19.20;34.20;;;;;;4973297;28;20496;-76
2021/05/27 07:13:03;;;;;;;3.57;3.47;;;19.20;34.20;;;;;;4973189;28;20438;-75
2021/05/27 07:15:29;;;;;;;3.90;3.70;;;19.20;34.30;;;;;;4972412;28;20182;-76
2021/05/27 07:17:55;;;;;;;4.33;4.03;;;19.20;34.40;;;;;;4954192;28;20462;-75
2021/05/27 07:20:23;;;;;;;4.47;4.10;;;19.20;34.40;;;;;;4964234;28;20426;-75
2021/05/27 07:22:50;;;;;;;5.90;4.17;;;19.20;34.30;;;;;;4964914;28;20828;-75
2021/05/27 07:25:16;;;;;;;3.90;3.70;;;19.20;34.30;;;;;;4959524;28;20442;-74
2021/05/27 07:27:47;;;;;;;4.10;3.80;;;19.20;34.40;;;;;;4972981;28;20447;-75
2021/05/27 07:30:13;;;;;;;4.40;4.10;;;19.20;34.40;;;;;;4955789;28;20814;-75
2021/05/27 07:32:39;;;;;;;4.20;4.00;;;19.20;34.40;;;;;;4953398;29;20533;-75
2021/05/27 07:35:07;;;;;;;4.10;3.90;;;19.20;34.40;;;;;;4954140;29;20498;-74
2021/05/27 07:37:33;;;;;;;4.37;4.07;;;19.10;34.30;;;;;;4954034;29;20226;-76
2021/05/27 07:39:59;;;;;;;4.53;4.33;;;19.20;34.40;;;;;;4953395;29;20906;-75
2021/05/27 07:42:24;;;;;;;4.37;4.17;;;19.20;34.40;;;;;;4954302;29;20199;-75
2021/05/27 07:44:50;;;;;;;4.10;3.90;;;19.20;34.40;;;;;;4954325;29;20765;-75
2021/05/27 07:47:15;;;;;;;4.67;4.40;;;19.20;34.40;;;;;;4936323;29;20537;-75
2021/05/27 07:49:41;;;;;;;4.03;3.70;;;19.10;34.30;;;;;;4954112;29;20178;-75
2021/05/27 07:52:06;;;;;;;4.13;3.93;;;19.20;34.40;;;;;;4954137;29;20278;-75
2021/05/27 07:54:32;;;;;;;4.30;4.00;;;19.20;34.40;;;;;;4953951;29;20178;-75
2021/05/27 07:56:58;;;;;;;4.23;3.80;;;19.20;35.10;;;;;;4953742;29;20229;-75
2021/05/27 07:59:24;;;;;;;3.83;3.63;;;19.10;34.30;;;;;;4953712;29;20185;-75
2021/05/27 08:01:50;;;;;;;3.90;3.70;;;19.10;34.40;;;;;;4953440;29;20439;-74
2021/05/27 08:04:15;;;;;;;3.67;3.47;;;19.10;34.40;;;;;;4953995;29;20183;-75
2021/05/27 08:06:41;;;;;;;4.33;3.90;;;19.10;34.30;;;;;;4953453;28;20616;-75
2021/05/27 08:09:07;;;;;;;4.30;4.00;;;19.10;34.40;;;;;;4957213;29;20175;-76
2021/05/27 08:11:40;;;;;;;4.03;3.83;;;19.10;35.10;;;;;;4957261;29;20192;-75
2021/05/27 08:14:06;;;;;;;4.70;4.50;;;19.10;34.40;;;;;;4957147;29;20419;-75
2021/05/27 08:16:32;;;;;;;4.43;4.13;;;19.10;34.30;;;;;;4956696;29;20407;-76
2021/05/27 08:18:58;;;;;;;4.23;3.90;;;19.10;34.40;;;;;;4939360;29;20274;-76
2021/05/27 08:21:27;;;;;;;4.30;3.93;;;19.10;34.40;;;;;;4956906;29;20521;-75
2021/05/27 08:23:53;;;;;;;3.77;3.67;;;19.10;34.40;;;;;;4956565;29;20474;-76
2021/05/27 08:26:19;;;;;;;4.40;4.20;;;19.10;34.50;;;;;;4955823;29;20403;-76
2021/05/27 08:28:46;;;;;;;4.27;4.00;;;19.10;34.50;;;;;;4956235;29;20182;-75
2021/05/27 08:31:11;;;;;;;3.87;3.50;;;19.20;34.90;;;;;;4956875;29;20194;-76
2021/05/27 08:33:37;;;;;;;4.20;3.90;;;19.20;34.70;;;;;;4956681;29;20787;-75
2021/05/27 08:36:03;;;;;;;8.03;4.10;;;19.20;34.80;;;;;;4956606;29;20329;-75
2021/05/27 08:38:28;;;;;;;5.10;4.70;;;19.20;35.10;;;;;;4956780;29;20171;-76
2021/05/27 08:40:57;;;;;;;4.33;4.07;;;19.30;35.70;;;;;;4956770;29;20278;-76
2021/05/27 08:43:23;;;;;;;4.30;3.90;;;19.30;35.50;;;;;;4956483;29;20604;-75
2021/05/27 08:45:49;;;;;;;6.57;4.33;;;19.30;35.50;;;;;;4964947;28;20431;-77
2021/05/27 08:48:16;;;;;;;5.87;4.50;;;19.40;35.70;;;;;;4975751;28;20179;-76
2021/05/27 08:50:45;;;;;;;5.70;5.20;;;19.50;36.60;;;;;;4967899;28;20761;-76
2021/05/27 08:53:12;;;;;;;4.87;4.33;;;19.50;36.80;;;;;;4966994;28;20891;-76
2021/05/27 08:55:37;;;;;;;7.93;4.90;;;19.60;37.00;;;;;;4955706;29;20929;-76
2021/05/27 08:58:03;;;;;;;5.40;4.90;;;19.60;36.80;;;;;;4939148;29;20441;-77
2021/05/27 09:00:29;;;;;;;6.07;4.93;;;19.60;36.80;;;;;;4956283;29;20226;-75
2021/05/27 09:03:03;;;;;;;4.60;4.20;;;19.70;36.80;;;;;;4956058;29;20226;-75
2021/05/27 09:05:33;;;;;;;4.50;4.20;;;19.70;36.80;;;;;;4956103;29;20537;-75
2021/05/27 09:08:00;;;;;;;4.90;4.50;;;19.70;36.70;;;;;;4938676;29;20425;-76
2021/05/27 09:10:43;;;;;;;5.60;4.63;;;19.80;36.90;;;;;;4956022;29;20450;-75
2021/05/27 09:13:18;;;;;;;6.07;4.80;;;19.80;36.80;;;;;;4956035;29;20441;-76
2021/05/27 09:15:51;;;;;;;6.40;5.20;;;19.80;36.90;;;;;;4955852;29;20410;-75
2021/05/27 09:18:31;;;;;;;5.37;4.97;;;19.80;36.90;;;;;;4955574;28;20451;-75
2021/05/27 09:20:57;;;;;;;5.23;4.87;;;19.80;36.80;;;;;;4955661;29;20419;-76
2021/05/27 09:23:22;;;;;;;5.43;5.03;;;19.80;36.80;;;;;;4955755;29;20562;-74
2021/05/27 09:25:50;;;;;;;5.80;5.07;;;19.80;36.40;;;;;;4955747;29;20498;-76
2021/05/27 09:28:23;;;;;;;4.80;4.50;;;19.90;36.20;;;;;;4955970;29;20203;-77
2021/05/27 09:30:52;;;;;;;6.03;4.50;;;19.90;36.30;;;;;;4955699;29;20437;-75
2021/05/27 09:33:18;;;;;;;5.57;4.30;;;19.90;36.40;;;;;;4955825;29;20415;-76
2021/05/27 09:35:44;;;;;;;4.87;4.27;;;19.90;36.30;;;;;;4955832;29;20415;-76
2021/05/27 09:38:11;;;;;;;6.83;4.60;;;19.90;36.00;;;;;;4955916;29;20419;-74
2021/05/27 09:40:43;;;;;;;4.57;4.20;;;19.90;35.90;;;;;;4955387;29;20423;-75
2021/05/27 09:43:10;;;;;;;5.30;4.90;;;19.90;35.90;;;;;;4957293;29;20459;-76
2021/05/27 09:45:37;;;;;;;5.07;4.57;;;19.90;35.80;;;;;;4956559;29;20415;-76
2021/05/27 09:48:20;;;;;;;4.80;4.50;;;19.90;35.70;;;;;;4955920;29;20407;-76
2021/05/27 09:50:45;;;;;;;4.90;4.50;;;19.90;35.80;;;;;;4955700;29;20423;-76
2021/05/27 09:53:13;;;;;;;4.23;4.03;;;19.90;35.50;;;;;;4955601;29;20411;-76
2021/05/27 09:55:42;;;;;;;4.77;4.00;;;19.90;35.60;;;;;;4955492;29;20191;-76
2021/05/27 09:58:09;;;;;;;4.33;4.03;;;19.90;35.70;;;;;;4955120;29;20841;-75
2021/05/27 10:00:36;;;;;;;5.03;4.47;;;19.90;35.60;;;;;;4955402;29;20418;-75
2021/05/27 10:03:22;;;;;;;4.43;4.13;;;19.90;35.70;;;;;;4955249;29;20536;-76
2021/05/27 10:05:48;;;;;;;5.00;4.67;;;19.90;35.90;;;;;;4955156;29;20888;-75
2021/05/27 10:08:13;;;;;;;4.90;4.50;;;20.00;35.80;;;;;;4937886;29;20480;-75
2021/05/27 10:10:41;;;;;;;4.63;4.23;;;20.00;35.70;;;;;;4955130;29;20411;-76
2021/05/27 10:13:07;;;;;;;4.60;4.20;;;20.00;35.70;;;;;;4955197;29;20179;-75
2021/05/27 10:15:34;;;;;;;4.67;4.40;;;20.00;35.80;;;;;;4954920;29;20407;-77
2021/05/27 10:18:03;;;;;;;5.20;4.70;;;20.00;35.60;;;;;;4954973;29;20413;-77
2021/05/27 10:20:30;;;;;;;4.73;4.43;;;20.00;35.30;;;;;;4955443;29;20914;-77
2021/05/27 10:22:58;;;;;;;4.30;4.10;;;20.00;35.10;;;;;;4954557;29;20459;-76
2021/05/27 10:25:27;;;;;;;5.00;4.60;;;19.90;35.00;;;;;;4954486;29;20470;-76
2021/05/27 10:27:56;;;;;;;6.40;4.80;;;20.00;35.20;;;;;;4964953;28;20426;-74
2021/05/27 10:30:23;;;;;;;4.27;3.97;;;19.90;35.20;;;;;;4956214;28;20557;-76
2021/05/27 10:32:53;;;;;;;5.00;4.50;;;19.90;35.30;;;;;;4954173;29;20816;-75
2021/05/27 10:35:19;;;;;;;5.03;4.63;;;19.80;35.10;;;;;;4954618;29;20450;-76
2021/05/27 10:37:50;;;;;;;4.13;3.90;;;19.80;35.00;;;;;;4954441;29;20497;-76
2021/05/27 10:40:21;;;;;;;4.70;4.50;;;19.80;34.70;;;;;;4954772;29;20419;-76
2021/05/27 10:42:56;;;;;;;4.70;4.33;;;19.80;34.40;;;;;;4937180;29;20508;-75
2021/05/27 10:45:23;;;;;;;5.10;4.60;;;19.80;34.10;;;;;;4954341;29;20418;-76
2021/05/27 10:48:14;;;;;;;5.00;4.70;;;19.80;33.90;;;;;;4954409;29;20742;-76
2021/05/27 10:50:55;;;;;;;4.77;4.47;;;19.80;33.60;;;;;;4954418;29;20457;-75
2021/05/27 10:53:40;;;;;;;5.00;4.80;;;19.90;33.50;;;;;;4954302;29;20804;-75
2021/05/27 10:56:17;;;;;;;4.70;4.30;;;19.80;33.20;;;;;;4954383;29;20402;-76
2021/05/27 10:58:45;;;;;;;4.90;4.50;;;19.90;33.10;;;;;;4953080;29;20781;-76
2021/05/27 11:01:14;;;;;;;4.43;4.03;;;19.90;33.50;;;;;;4954607;29;20991;-77
2021/05/27 11:03:43;;;;;;;5.70;4.20;;;19.90;33.40;;;;;;4954689;29;20454;-76
2021/05/27 11:06:21;;;;;;;4.93;4.50;;;19.90;33.50;;;;;;4954301;29;20419;-76
2021/05/27 11:09:16;;;;;;;5.03;4.73;;;19.90;33.40;;;;;;4937108;29;20510;-76
2021/05/27 11:11:48;;;;;;;6.27;5.10;;;19.90;33.40;;;;;;4949134;29;20446;-76
2021/05/27 11:14:17;;;;;;;5.33;4.93;;;19.80;33.30;;;;;;4954159;29;20429;-76
2021/05/27 11:17:14;;;;;;;5.07;4.60;;;19.80;33.30;;;;;;4953762;29;20434;-76
2021/05/27 11:19:41;;;;;;;6.63;4.73;;;19.70;33.30;;;;;;4952589;29;20930;-76
2021/05/27 11:22:36;;;;;;;5.30;4.80;;;19.70;33.40;;;;;;4953925;29;20443;-76
2021/05/27 11:25:08;;;;;;;5.13;4.70;;;19.70;33.50;;;;;;4953519;29;20418;-76
2021/05/27 11:27:40;;;;;;;4.97;4.57;;;19.60;33.50;;;;;;4954139;29;20407;-77
2021/05/27 11:30:24;;;;;;;4.60;4.30;;;19.60;33.50;;;;;;4953943;29;20400;-76
2021/05/27 11:33:10;;;;;;;11.73;4.83;;;19.60;33.60;;;;;;4936413;29;20467;-76
2021/05/27 11:35:39;;;;;;;4.50;4.30;;;19.60;33.60;;;;;;4952224;29;20518;-76
2021/05/27 11:38:20;;;;;;;4.50;4.20;;;19.50;33.50;;;;;;4953700;29;20425;-76
2021/05/27 11:40:48;;;;;;;5.37;4.97;;;19.60;33.60;;;;;;4955552;28;20430;-76
2021/05/27 11:43:16;;;;;;;6.47;4.37;;;19.50;33.50;;;;;;4956268;28;20557;-76
2021/05/27 11:45:43;;;;;;;6.30;5.17;;;19.50;33.40;;;;;;4940848;29;20486;-76
2021/05/27 11:48:22;;;;;;;4.47;4.17;;;19.50;33.50;;;;;;4940537;29;20429;-76
2021/05/27 11:50:49;;;;;;;4.67;4.47;;;19.50;33.50;;;;;;4957534;29;20421;-76
2021/05/27 11:53:19;;;;;;;4.60;4.40;;;19.50;33.60;;;;;;4957860;29;20837;-76
2021/05/27 11:55:55;;;;;;;4.73;4.53;;;19.50;33.60;;;;;;4940686;29;20800;-76
2021/05/27 11:58:36;;;;;;;6.57;4.50;;;19.50;33.60;;;;;;4957606;29;20422;-76
2021/05/27 12:01:21;;;;;;;5.07;4.53;;;19.50;33.60;;;;;;4957406;29;20832;-77
2021/05/27 12:04:07;;;;;;;4.37;4.00;;;19.50;33.70;;;;;;4949682;28;20505;-76
2021/05/27 12:06:49;;;;;;;4.77;4.50;;;19.50;33.70;;;;;;4958207;28;20446;-76
2021/05/27 12:09:35;;;;;;;4.70;4.50;;;19.40;33.60;;;;;;4957278;29;20407;-75
2021/05/27 12:12:20;;;;;;;4.60;4.20;;;19.40;33.60;;;;;;4957049;29;20489;-76
2021/05/27 12:14:55;;;;;;;4.60;4.40;;;19.40;33.70;;;;;;4957141;29;20418;-76
2021/05/27 12:17:22;;;;;;;4.53;4.33;;;19.40;33.70;;;;;;4957029;29;20413;-76
2021/05/27 12:19:50;;;;;;;4.87;4.57;;;19.40;33.30;;;;;;4956969;29;20421;-77
2021/05/27 12:22:16;;;;;;;4.40;4.20;;;19.40;33.70;;;;;;4956799;29;20437;-76
2021/05/27 12:24:42;;;;;;;3.80;3.60;;;19.40;34.50;;;;;;4956871;29;21000;-76
2021/05/27 12:27:07;;;;;;;6.13;3.97;;;19.40;33.70;;;;;;4956393;29;20423;-76
2021/05/27 12:29:33;;;;;;;4.00;3.80;;;19.40;33.70;;;;;;4956844;29;20176;-76
2021/05/27 12:31:59;;;;;;;4.37;4.07;;;19.40;33.70;;;;;;4939881;29;20209;-75
2021/05/27 12:34:25;;;;;;;4.20;3.90;;;19.30;33.60;;;;;;4956816;29;20505;-75
2021/05/27 12:36:56;;;;;;;4.40;4.20;;;19.30;33.60;;;;;;4957073;29;20180;-76
2021/05/27 12:39:39;;;;;;;3.70;3.60;;;19.40;33.80;;;;;;4956616;29;20418;-76
2021/05/27 12:42:09;;;;;;;4.60;4.10;;;19.30;33.70;;;;;;4957802;29;20477;-77
2021/05/27 12:44:44;;;;;;;4.20;4.00;;;19.30;33.80;;;;;;4957053;29;20419;-76
2021/05/27 12:47:20;;;;;;;4.10;3.80;;;19.30;33.70;;;;;;4939069;29;20791;-76
2021/05/27 12:49:52;;;;;;;4.20;3.90;;;19.30;33.70;;;;;;4956669;29;20445;-76
2021/05/27 12:52:38;;;;;;;3.80;3.70;;;19.30;33.70;;;;;;4956863;29;20443;-76
2021/05/27 12:55:07;;;;;;;4.13;3.80;;;19.30;33.70;;;;;;4955516;28;20415;-77